sensor_id;sensor_type;location;lat;lon;timestamp;P1;durP1;ratioP1;P2;durP2;ratioP2
31382;SDS011;18014;49.228;11.102;2023-08-06T00:01:37;8.70;;;6.57;;
31382;SDS011;18014;49.228;11.102;2023-08-06T00:03:38;15.82;;;7.30;;
31382;SDS011;18014;49.228;11.102;2023-08-06T00:05:41;11.38;;;6.88;;
31382;SDS011;18014;49.228;11.102;2023-08-06T00:07:43;8.82;;;6.95;;
31382;SDS011;18014;49.228;11.102;2023-08-06T00:09:45;10.07;;;6.50;;
31382;SDS011;18014;49.228;11.102;2023-08-06T00:11:46;9.73;;;6.53;;
31382;SDS011;18014;49.228;11.102;2023-08-06T00:13:47;10.02;;;6.82;;
31382;SDS011;18014;49.228;11.102;2023-08-06T00:15:47;8.43;;;6.47;;
31382;SDS011;18014;49.228;11.102;2023-08-06T00:17:49;11.32;;;6.70;;
31382;SDS011;18014;49.228;11.102;2023-08-06T00:19:49;7.57;;;5.50;;
31382;SDS011;18014;49.228;11.102;2023-08-06T00:21:50;10.13;;;5.72;;
31382;SDS011;18014;49.228;11.102;2023-08-06T00:23:51;7.65;;;5.82;;
31382;SDS011;18014;49.228;11.102;2023-08-06T00:25:52;7.72;;;6.00;;
31382;SDS011;18014;49.228;11.102;2023-08-06T00:27:53;9.02;;;5.88;;
31382;SDS011;18014;49.228;11.102;2023-08-06T00:29:56;9.18;;;6.18;;
31382;SDS011;18014;49.228;11.102;2023-08-06T00:31:57;14.25;;;6.32;;
31382;SDS011;18014;49.228;11.102;2023-08-06T00:33:58;8.50;;;5.93;;
31382;SDS011;18014;49.228;11.102;2023-08-06T00:35:59;7.60;;;6.40;;
31382;SDS011;18014;49.228;11.102;2023-08-06T00:38:00;9.25;;;6.75;;
31382;SDS011;18014;49.228;11.102;2023-08-06T00:40:01;7.63;;;6.07;;
31382;SDS011;18014;49.228;11.102;2023-08-06T00:42:02;10.57;;;6.40;;
31382;SDS011;18014;49.228;11.102;2023-08-06T00:44:03;7.93;;;6.13;;
31382;SDS011;18014;49.228;11.102;2023-08-06T00:46:04;8.32;;;6.18;;
31382;SDS011;18014;49.228;11.102;2023-08-06T00:48:05;14.30;;;6.05;;
31382;SDS011;18014;49.228;11.102;2023-08-06T00:50:07;10.63;;;6.05;;
31382;SDS011;18014;49.228;11.102;2023-08-06T00:52:08;10.02;;;7.30;;
31382;SDS011;18014;49.228;11.102;2023-08-06T00:54:10;8.48;;;5.72;;
31382;SDS011;18014;49.228;11.102;2023-08-06T00:56:11;8.60;;;6.28;;
31382;SDS011;18014;49.228;11.102;2023-08-06T00:58:12;9.18;;;6.60;;
31382;SDS011;18014;49.228;11.102;2023-08-06T01:00:15;10.63;;;6.25;;
31382;SDS011;18014;49.228;11.102;2023-08-06T01:02:16;10.23;;;6.95;;
31382;SDS011;18014;49.228;11.102;2023-08-06T01:04:17;9.55;;;6.85;;
31382;SDS011;18014;49.228;11.102;2023-08-06T01:06:19;8.93;;;6.47;;
31382;SDS011;18014;49.228;11.102;2023-08-06T01:13:55;12.32;;;8.13;;
31382;SDS011;18014;49.228;11.102;2023-08-06T01:15:59;9.60;;;6.63;;
31382;SDS011;18014;49.228;11.102;2023-08-06T01:18:01;11.40;;;6.17;;
31382;SDS011;18014;49.228;11.102;2023-08-06T01:20:03;9.75;;;7.65;;
31382;SDS011;18014;49.228;11.102;2023-08-06T01:22:04;10.13;;;7.38;;
31382;SDS011;18014;49.228;11.102;2023-08-06T01:24:05;12.43;;;7.57;;
31382;SDS011;18014;49.228;11.102;2023-08-06T01:28:11;11.05;;;7.30;;
31382;SDS011;18014;49.228;11.102;2023-08-06T01:30:28;8.48;;;6.43;;
31382;SDS011;18014;49.228;11.102;2023-08-06T01:32:35;10.65;;;6.63;;
31382;SDS011;18014;49.228;11.102;2023-08-06T01:34:43;11.38;;;6.70;;
31382;SDS011;18014;49.228;11.102;2023-08-06T01:36:45;11.40;;;7.07;;
31382;SDS011;18014;49.228;11.102;2023-08-06T01:38:46;9.18;;;7.13;;
31382;SDS011;18014;49.228;11.102;2023-08-06T01:40:47;11.55;;;7.05;;
31382;SDS011;18014;49.228;11.102;2023-08-06T01:42:48;10.00;;;7.20;;
31382;SDS011;18014;49.228;11.102;2023-08-06T01:44:49;10.93;;;7.85;;
31382;SDS011;18014;49.228;11.102;2023-08-06T01:46:50;10.68;;;7.68;;
31382;SDS011;18014;49.228;11.102;2023-08-06T01:48:51;8.23;;;6.47;;
31382;SDS011;18014;49.228;11.102;2023-08-06T01:50:52;8.60;;;5.93;;
31382;SDS011;18014;49.228;11.102;2023-08-06T01:52:53;13.93;;;7.78;;
31382;SDS011;18014;49.228;11.102;2023-08-06T01:54:54;10.20;;;6.93;;
31382;SDS011;18014;49.228;11.102;2023-08-06T01:56:55;10.43;;;7.32;;
31382;SDS011;18014;49.228;11.102;2023-08-06T01:58:58;12.88;;;6.85;;
31382;SDS011;18014;49.228;11.102;2023-08-06T02:01:00;11.07;;;7.03;;
31382;SDS011;18014;49.228;11.102;2023-08-06T02:03:01;11.70;;;6.45;;
31382;SDS011;18014;49.228;11.102;2023-08-06T02:05:02;9.07;;;6.78;;
31382;SDS011;18014;49.228;11.102;2023-08-06T02:07:04;9.80;;;7.75;;
31382;SDS011;18014;49.228;11.102;2023-08-06T02:09:05;12.57;;;6.75;;
31382;SDS011;18014;49.228;11.102;2023-08-06T02:11:06;7.85;;;5.68;;
31382;SDS011;18014;49.228;11.102;2023-08-06T02:13:07;8.43;;;6.75;;
31382;SDS011;18014;49.228;11.102;2023-08-06T02:15:08;8.05;;;6.20;;
31382;SDS011;18014;49.228;11.102;2023-08-06T02:17:09;10.50;;;6.75;;
31382;SDS011;18014;49.228;11.102;2023-08-06T02:19:10;11.50;;;6.55;;
31382;SDS011;18014;49.228;11.102;2023-08-06T02:21:11;8.38;;;5.95;;
31382;SDS011;18014;49.228;11.102;2023-08-06T02:23:12;7.15;;;5.25;;
31382;SDS011;18014;49.228;11.102;2023-08-06T02:25:12;7.45;;;5.32;;
31382;SDS011;18014;49.228;11.102;2023-08-06T02:27:13;6.15;;;5.47;;
31382;SDS011;18014;49.228;11.102;2023-08-06T02:29:14;7.22;;;5.20;;
31382;SDS011;18014;49.228;11.102;2023-08-06T02:31:15;6.32;;;4.95;;
31382;SDS011;18014;49.228;11.102;2023-08-06T02:33:16;9.73;;;5.35;;
31382;SDS011;18014;49.228;11.102;2023-08-06T02:35:17;7.13;;;4.72;;
31382;SDS011;18014;49.228;11.102;2023-08-06T02:37:18;5.43;;;4.70;;
31382;SDS011;18014;49.228;11.102;2023-08-06T02:39:19;6.25;;;4.43;;
31382;SDS011;18014;49.228;11.102;2023-08-06T02:41:20;9.48;;;5.05;;
31382;SDS011;18014;49.228;11.102;2023-08-06T02:43:21;7.95;;;5.43;;
31382;SDS011;18014;49.228;11.102;2023-08-06T02:45:22;7.82;;;5.70;;
31382;SDS011;18014;49.228;11.102;2023-08-06T02:47:23;10.70;;;5.93;;
31382;SDS011;18014;49.228;11.102;2023-08-06T02:49:24;7.03;;;5.30;;
31382;SDS011;18014;49.228;11.102;2023-08-06T02:51:25;8.23;;;5.72;;
31382;SDS011;18014;49.228;11.102;2023-08-06T02:53:26;5.88;;;4.68;;
31382;SDS011;18014;49.228;11.102;2023-08-06T02:55:27;7.93;;;5.40;;
31382;SDS011;18014;49.228;11.102;2023-08-06T02:57:28;6.60;;;4.85;;
31382;SDS011;18014;49.228;11.102;2023-08-06T02:59:30;6.97;;;4.95;;
31382;SDS011;18014;49.228;11.102;2023-08-06T03:01:31;6.15;;;5.03;;
31382;SDS011;18014;49.228;11.102;2023-08-06T03:03:33;8.43;;;4.95;;
31382;SDS011;18014;49.228;11.102;2023-08-06T03:05:34;5.53;;;4.95;;
31382;SDS011;18014;49.228;11.102;2023-08-06T03:07:35;8.80;;;4.90;;
31382;SDS011;18014;49.228;11.102;2023-08-06T03:09:37;6.38;;;4.75;;
31382;SDS011;18014;49.228;11.102;2023-08-06T03:11:38;5.80;;;4.72;;
31382;SDS011;18014;49.228;11.102;2023-08-06T03:13:39;6.50;;;4.80;;
31382;SDS011;18014;49.228;11.102;2023-08-06T03:15:40;6.20;;;4.68;;
31382;SDS011;18014;49.228;11.102;2023-08-06T03:17:41;7.93;;;4.85;;
31382;SDS011;18014;49.228;11.102;2023-08-06T03:19:42;6.13;;;4.78;;
31382;SDS011;18014;49.228;11.102;2023-08-06T03:21:43;5.05;;;4.55;;
31382;SDS011;18014;49.228;11.102;2023-08-06T03:23:46;8.43;;;4.68;;
31382;SDS011;18014;49.228;11.102;2023-08-06T03:25:48;7.57;;;5.18;;
31382;SDS011;18014;49.228;11.102;2023-08-06T03:27:49;6.60;;;4.97;;
31382;SDS011;18014;49.228;11.102;2023-08-06T03:29:50;6.70;;;4.35;;
31382;SDS011;18014;49.228;11.102;2023-08-06T03:31:51;6.60;;;4.50;;
31382;SDS011;18014;49.228;11.102;2023-08-06T03:33:53;5.65;;;4.45;;
31382;SDS011;18014;49.228;11.102;2023-08-06T03:35:54;9.13;;;5.13;;
31382;SDS011;18014;49.228;11.102;2023-08-06T03:37:55;6.00;;;4.75;;
31382;SDS011;18014;49.228;11.102;2023-08-06T03:39:56;8.13;;;4.93;;
31382;SDS011;18014;49.228;11.102;2023-08-06T03:41:57;6.45;;;4.60;;
31382;SDS011;18014;49.228;11.102;2023-08-06T03:43:58;5.75;;;4.30;;
31382;SDS011;18014;49.228;11.102;2023-08-06T03:46:00;6.47;;;5.20;;
31382;SDS011;18014;49.228;11.102;2023-08-06T03:48:01;7.07;;;4.40;;
31382;SDS011;18014;49.228;11.102;2023-08-06T03:50:02;6.22;;;4.47;;
31382;SDS011;18014;49.228;11.102;2023-08-06T03:52:04;6.82;;;4.43;;
31382;SDS011;18014;49.228;11.102;2023-08-06T03:54:06;5.03;;;4.35;;
31382;SDS011;18014;49.228;11.102;2023-08-06T03:56:06;6.00;;;4.38;;
31382;SDS011;18014;49.228;11.102;2023-08-06T03:58:07;5.95;;;4.85;;
31382;SDS011;18014;49.228;11.102;2023-08-06T04:00:09;6.75;;;4.53;;
31382;SDS011;18014;49.228;11.102;2023-08-06T04:02:10;6.72;;;4.57;;
31382;SDS011;18014;49.228;11.102;2023-08-06T04:04:11;6.35;;;4.53;;
31382;SDS011;18014;49.228;11.102;2023-08-06T04:06:12;5.43;;;4.43;;
31382;SDS011;18014;49.228;11.102;2023-08-06T04:08:13;6.18;;;4.22;;
31382;SDS011;18014;49.228;11.102;2023-08-06T04:10:14;5.88;;;4.55;;
31382;SDS011;18014;49.228;11.102;2023-08-06T04:12:15;5.70;;;4.03;;
31382;SDS011;18014;49.228;11.102;2023-08-06T04:14:16;5.18;;;4.32;;
31382;SDS011;18014;49.228;11.102;2023-08-06T04:16:16;9.38;;;4.82;;
31382;SDS011;18014;49.228;11.102;2023-08-06T04:18:17;7.75;;;4.53;;
31382;SDS011;18014;49.228;11.102;2023-08-06T04:20:18;5.82;;;5.07;;
31382;SDS011;18014;49.228;11.102;2023-08-06T04:22:20;8.15;;;5.22;;
31382;SDS011;18014;49.228;11.102;2023-08-06T04:24:21;8.33;;;4.87;;
31382;SDS011;18014;49.228;11.102;2023-08-06T04:26:22;6.10;;;5.05;;
31382;SDS011;18014;49.228;11.102;2023-08-06T04:28:23;6.43;;;4.80;;
31382;SDS011;18014;49.228;11.102;2023-08-06T04:30:24;4.90;;;4.13;;
31382;SDS011;18014;49.228;11.102;2023-08-06T04:32:25;7.80;;;5.18;;
31382;SDS011;18014;49.228;11.102;2023-08-06T04:34:27;7.35;;;4.45;;
31382;SDS011;18014;49.228;11.102;2023-08-06T04:36:28;7.03;;;4.88;;
31382;SDS011;18014;49.228;11.102;2023-08-06T04:38:29;6.75;;;5.05;;
31382;SDS011;18014;49.228;11.102;2023-08-06T04:40:32;5.78;;;4.50;;
31382;SDS011;18014;49.228;11.102;2023-08-06T04:42:34;6.20;;;4.72;;
31382;SDS011;18014;49.228;11.102;2023-08-06T04:44:35;5.85;;;4.55;;
31382;SDS011;18014;49.228;11.102;2023-08-06T04:46:36;5.78;;;4.72;;
31382;SDS011;18014;49.228;11.102;2023-08-06T04:48:37;6.50;;;4.47;;
31382;SDS011;18014;49.228;11.102;2023-08-06T04:50:38;6.30;;;4.88;;
31382;SDS011;18014;49.228;11.102;2023-08-06T04:52:42;5.75;;;4.15;;
31382;SDS011;18014;49.228;11.102;2023-08-06T04:54:43;8.10;;;3.78;;
31382;SDS011;18014;49.228;11.102;2023-08-06T04:56:44;8.32;;;4.05;;
31382;SDS011;18014;49.228;11.102;2023-08-06T04:58:45;8.93;;;4.28;;
31382;SDS011;18014;49.228;11.102;2023-08-06T05:00:46;7.90;;;4.30;;
31382;SDS011;18014;49.228;11.102;2023-08-06T05:02:47;5.35;;;4.25;;
31382;SDS011;18014;49.228;11.102;2023-08-06T05:04:48;5.13;;;4.28;;
31382;SDS011;18014;49.228;11.102;2023-08-06T05:06:49;6.30;;;4.30;;
31382;SDS011;18014;49.228;11.102;2023-08-06T05:08:50;5.78;;;4.53;;
31382;SDS011;18014;49.228;11.102;2023-08-06T05:10:51;6.97;;;4.55;;
31382;SDS011;18014;49.228;11.102;2023-08-06T05:12:52;5.07;;;4.28;;
31382;SDS011;18014;49.228;11.102;2023-08-06T05:14:53;7.63;;;4.57;;
31382;SDS011;18014;49.228;11.102;2023-08-06T05:16:54;5.57;;;4.47;;
31382;SDS011;18014;49.228;11.102;2023-08-06T05:18:55;5.63;;;4.40;;
31382;SDS011;18014;49.228;11.102;2023-08-06T05:20:56;4.40;;;3.95;;
31382;SDS011;18014;49.228;11.102;2023-08-06T05:22:57;8.27;;;4.90;;
31382;SDS011;18014;49.228;11.102;2023-08-06T05:24:58;6.47;;;4.53;;
31382;SDS011;18014;49.228;11.102;2023-08-06T05:26:59;5.68;;;4.25;;
31382;SDS011;18014;49.228;11.102;2023-08-06T05:29:00;10.52;;;6.25;;
31382;SDS011;18014;49.228;11.102;2023-08-06T05:31:04;5.90;;;4.13;;
31382;SDS011;18014;49.228;11.102;2023-08-06T05:33:05;6.63;;;4.90;;
31382;SDS011;18014;49.228;11.102;2023-08-06T05:35:06;5.95;;;4.72;;
31382;SDS011;18014;49.228;11.102;2023-08-06T05:37:07;7.82;;;4.90;;
31382;SDS011;18014;49.228;11.102;2023-08-06T05:39:09;6.18;;;4.57;;
31382;SDS011;18014;49.228;11.102;2023-08-06T05:41:10;6.90;;;5.60;;
31382;SDS011;18014;49.228;11.102;2023-08-06T05:43:11;7.32;;;5.63;;
31382;SDS011;18014;49.228;11.102;2023-08-06T05:45:12;6.72;;;5.68;;
31382;SDS011;18014;49.228;11.102;2023-08-06T05:47:13;10.43;;;5.93;;
31382;SDS011;18014;49.228;11.102;2023-08-06T05:49:14;8.80;;;5.35;;
31382;SDS011;18014;49.228;11.102;2023-08-06T05:51:15;9.00;;;6.65;;
31382;SDS011;18014;49.228;11.102;2023-08-06T05:53:16;9.98;;;6.43;;
31382;SDS011;18014;49.228;11.102;2023-08-06T05:55:18;8.13;;;5.78;;
31382;SDS011;18014;49.228;11.102;2023-08-06T05:57:20;7.97;;;5.97;;
31382;SDS011;18014;49.228;11.102;2023-08-06T05:59:21;7.57;;;5.57;;
31382;SDS011;18014;49.228;11.102;2023-08-06T06:01:22;10.00;;;5.43;;
31382;SDS011;18014;49.228;11.102;2023-08-06T06:03:23;8.35;;;5.95;;
31382;SDS011;18014;49.228;11.102;2023-08-06T06:05:24;9.48;;;6.03;;
31382;SDS011;18014;49.228;11.102;2023-08-06T06:07:25;9.45;;;5.53;;
31382;SDS011;18014;49.228;11.102;2023-08-06T06:09:26;11.65;;;6.45;;
31382;SDS011;18014;49.228;11.102;2023-08-06T06:11:27;10.70;;;5.28;;
31382;SDS011;18014;49.228;11.102;2023-08-06T06:13:28;7.32;;;5.28;;
31382;SDS011;18014;49.228;11.102;2023-08-06T06:15:28;9.32;;;6.32;;
31382;SDS011;18014;49.228;11.102;2023-08-06T06:17:29;9.90;;;6.32;;
31382;SDS011;18014;49.228;11.102;2023-08-06T06:19:30;9.98;;;7.43;;
31382;SDS011;18014;49.228;11.102;2023-08-06T06:21:31;11.07;;;6.78;;
31382;SDS011;18014;49.228;11.102;2023-08-06T06:26:05;9.35;;;6.50;;
31382;SDS011;18014;49.228;11.102;2023-08-06T06:28:06;10.60;;;7.22;;
31382;SDS011;18014;49.228;11.102;2023-08-06T06:30:07;11.23;;;6.88;;
31382;SDS011;18014;49.228;11.102;2023-08-06T06:32:08;8.27;;;6.10;;
31382;SDS011;18014;49.228;11.102;2023-08-06T06:34:09;9.27;;;6.70;;
31382;SDS011;18014;49.228;11.102;2023-08-06T06:36:10;10.48;;;6.88;;
31382;SDS011;18014;49.228;11.102;2023-08-06T06:38:11;8.82;;;7.10;;
31382;SDS011;18014;49.228;11.102;2023-08-06T06:40:12;8.63;;;5.95;;
31382;SDS011;18014;49.228;11.102;2023-08-06T06:42:13;10.35;;;6.25;;
31382;SDS011;18014;49.228;11.102;2023-08-06T06:44:15;9.50;;;6.97;;
31382;SDS011;18014;49.228;11.102;2023-08-06T06:46:16;11.13;;;7.10;;
31382;SDS011;18014;49.228;11.102;2023-08-06T06:48:17;8.38;;;5.72;;
31382;SDS011;18014;49.228;11.102;2023-08-06T06:50:18;9.10;;;5.70;;
31382;SDS011;18014;49.228;11.102;2023-08-06T06:52:19;9.52;;;5.82;;
31382;SDS011;18014;49.228;11.102;2023-08-06T06:54:20;9.60;;;5.72;;
31382;SDS011;18014;49.228;11.102;2023-08-06T06:56:21;9.00;;;6.50;;
31382;SDS011;18014;49.228;11.102;2023-08-06T06:58:22;7.25;;;4.95;;
31382;SDS011;18014;49.228;11.102;2023-08-06T07:00:23;8.20;;;6.25;;
31382;SDS011;18014;49.228;11.102;2023-08-06T07:02:24;10.50;;;5.55;;
31382;SDS011;18014;49.228;11.102;2023-08-06T07:04:25;7.75;;;5.28;;
31382;SDS011;18014;49.228;11.102;2023-08-06T07:06:26;7.78;;;5.28;;
31382;SDS011;18014;49.228;11.102;2023-08-06T07:08:27;7.32;;;5.22;;
31382;SDS011;18014;49.228;11.102;2023-08-06T07:10:28;8.63;;;6.15;;
31382;SDS011;18014;49.228;11.102;2023-08-06T07:12:29;5.57;;;4.43;;
31382;SDS011;18014;49.228;11.102;2023-08-06T07:14:30;6.80;;;4.30;;
31382;SDS011;18014;49.228;11.102;2023-08-06T07:16:31;6.38;;;4.30;;
31382;SDS011;18014;49.228;11.102;2023-08-06T07:18:33;6.05;;;5.05;;
31382;SDS011;18014;49.228;11.102;2023-08-06T07:20:34;7.40;;;4.80;;
31382;SDS011;18014;49.228;11.102;2023-08-06T07:22:35;8.00;;;5.10;;
31382;SDS011;18014;49.228;11.102;2023-08-06T07:24:36;7.18;;;4.82;;
31382;SDS011;18014;49.228;11.102;2023-08-06T07:26:37;6.40;;;4.82;;
31382;SDS011;18014;49.228;11.102;2023-08-06T07:28:38;8.50;;;4.47;;
31382;SDS011;18014;49.228;11.102;2023-08-06T07:30:40;8.95;;;4.43;;
31382;SDS011;18014;49.228;11.102;2023-08-06T07:32:41;8.43;;;4.95;;
31382;SDS011;18014;49.228;11.102;2023-08-06T07:34:42;7.55;;;4.55;;
31382;SDS011;18014;49.228;11.102;2023-08-06T07:36:44;5.00;;;3.90;;
31382;SDS011;18014;49.228;11.102;2023-08-06T07:38:45;5.50;;;3.58;;
31382;SDS011;18014;49.228;11.102;2023-08-06T07:42:49;4.28;;;3.10;;
31382;SDS011;18014;49.228;11.102;2023-08-06T07:44:53;11.15;;;3.53;;
31382;SDS011;18014;49.228;11.102;2023-08-06T07:46:55;2.47;;;2.00;;
31382;SDS011;18014;49.228;11.102;2023-08-06T07:48:56;4.57;;;3.25;;
31382;SDS011;18014;49.228;11.102;2023-08-06T07:50:57;2.85;;;2.22;;
31382;SDS011;18014;49.228;11.102;2023-08-06T07:52:59;2.13;;;1.50;;
31382;SDS011;18014;49.228;11.102;2023-08-06T07:55:00;2.78;;;2.50;;
31382;SDS011;18014;49.228;11.102;2023-08-06T07:57:04;3.78;;;2.55;;
31382;SDS011;18014;49.228;11.102;2023-08-06T07:59:06;3.00;;;2.35;;
31382;SDS011;18014;49.228;11.102;2023-08-06T08:01:07;4.57;;;2.22;;
31382;SDS011;18014;49.228;11.102;2023-08-06T08:03:08;5.03;;;1.80;;
31382;SDS011;18014;49.228;11.102;2023-08-06T08:05:09;2.80;;;2.05;;
31382;SDS011;18014;49.228;11.102;2023-08-06T08:07:10;2.92;;;1.65;;
31382;SDS011;18014;49.228;11.102;2023-08-06T08:09:11;5.80;;;1.65;;
31382;SDS011;18014;49.228;11.102;2023-08-06T08:11:13;1.77;;;1.67;;
31382;SDS011;18014;49.228;11.102;2023-08-06T08:13:15;2.42;;;1.83;;
31382;SDS011;18014;49.228;11.102;2023-08-06T08:15:17;3.30;;;1.50;;
31382;SDS011;18014;49.228;11.102;2023-08-06T08:17:18;2.50;;;1.92;;
31382;SDS011;18014;49.228;11.102;2023-08-06T08:19:19;3.70;;;1.80;;
31382;SDS011;18014;49.228;11.102;2023-08-06T08:21:21;2.65;;;1.58;;
31382;SDS011;18014;49.228;11.102;2023-08-06T08:23:24;1.40;;;0.90;;
31382;SDS011;18014;49.228;11.102;2023-08-06T08:25:25;1.63;;;0.90;;
31382;SDS011;18014;49.228;11.102;2023-08-06T08:27:26;1.48;;;0.88;;
31382;SDS011;18014;49.228;11.102;2023-08-06T08:29:27;1.83;;;1.08;;
31382;SDS011;18014;49.228;11.102;2023-08-06T08:31:28;1.17;;;1.08;;
31382;SDS011;18014;49.228;11.102;2023-08-06T08:33:29;2.00;;;1.17;;
31382;SDS011;18014;49.228;11.102;2023-08-06T08:35:30;0.88;;;0.55;;
31382;SDS011;18014;49.228;11.102;2023-08-06T08:37:31;2.03;;;1.10;;
31382;SDS011;18014;49.228;11.102;2023-08-06T08:39:32;1.73;;;0.85;;
31382;SDS011;18014;49.228;11.102;2023-08-06T08:41:33;4.88;;;1.00;;
31382;SDS011;18014;49.228;11.102;2023-08-06T08:43:39;0.85;;;0.80;;
31382;SDS011;18014;49.228;11.102;2023-08-06T08:47:43;1.33;;;0.77;;
31382;SDS011;18014;49.228;11.102;2023-08-06T08:49:46;3.92;;;0.90;;
31382;SDS011;18014;49.228;11.102;2023-08-06T08:51:48;1.10;;;0.90;;
31382;SDS011;18014;49.228;11.102;2023-08-06T08:53:51;0.70;;;0.65;;
31382;SDS011;18014;49.228;11.102;2023-08-06T08:55:56;1.77;;;0.47;;
31382;SDS011;18014;49.228;11.102;2023-08-06T08:57:58;1.20;;;0.82;;
31382;SDS011;18014;49.228;11.102;2023-08-06T08:59:59;0.43;;;0.43;;
31382;SDS011;18014;49.228;11.102;2023-08-06T09:02:00;0.85;;;0.73;;
31382;SDS011;18014;49.228;11.102;2023-08-06T09:04:01;1.83;;;0.40;;
31382;SDS011;18014;49.228;11.102;2023-08-06T09:06:03;0.85;;;0.65;;
31382;SDS011;18014;49.228;11.102;2023-08-06T09:08:04;0.57;;;0.57;;
31382;SDS011;18014;49.228;11.102;2023-08-06T09:10:06;1.38;;;0.70;;
31382;SDS011;18014;49.228;11.102;2023-08-06T09:12:19;0.70;;;0.40;;
31382;SDS011;18014;49.228;11.102;2023-08-06T09:14:20;0.30;;;0.30;;
31382;SDS011;18014;49.228;11.102;2023-08-06T09:16:21;0.73;;;0.57;;
31382;SDS011;18014;49.228;11.102;2023-08-06T09:18:26;0.95;;;0.52;;
31382;SDS011;18014;49.228;11.102;2023-08-06T09:20:28;0.35;;;0.35;;
31382;SDS011;18014;49.228;11.102;2023-08-06T09:22:33;2.10;;;0.68;;
31382;SDS011;18014;49.228;11.102;2023-08-06T09:24:38;0.82;;;0.50;;
31382;SDS011;18014;49.228;11.102;2023-08-06T09:26:40;1.20;;;0.68;;
31382;SDS011;18014;49.228;11.102;2023-08-06T09:30:44;0.50;;;0.50;;
31382;SDS011;18014;49.228;11.102;2023-08-06T09:32:48;0.63;;;0.60;;
31382;SDS011;18014;49.228;11.102;2023-08-06T09:34:56;0.75;;;0.47;;
31382;SDS011;18014;49.228;11.102;2023-08-06T09:36:57;0.70;;;0.50;;
31382;SDS011;18014;49.228;11.102;2023-08-06T09:38:58;0.63;;;0.40;;
31382;SDS011;18014;49.228;11.102;2023-08-06T09:40:59;1.77;;;0.38;;
31382;SDS011;18014;49.228;11.102;2023-08-06T09:43:00;0.55;;;0.38;;
31382;SDS011;18014;49.228;11.102;2023-08-06T09:45:07;1.90;;;0.47;;
31382;SDS011;18014;49.228;11.102;2023-08-06T09:47:08;0.43;;;0.38;;
31382;SDS011;18014;49.228;11.102;2023-08-06T09:49:09;0.50;;;0.50;;
31382;SDS011;18014;49.228;11.102;2023-08-06T09:51:10;0.30;;;0.30;;
31382;SDS011;18014;49.228;11.102;2023-08-06T09:53:13;0.65;;;0.32;;
31382;SDS011;18014;49.228;11.102;2023-08-06T09:55:14;1.35;;;0.77;;
31382;SDS011;18014;49.228;11.102;2023-08-06T09:57:15;0.38;;;0.38;;
31382;SDS011;18014;49.228;11.102;2023-08-06T09:59:16;1.60;;;0.52;;
31382;SDS011;18014;49.228;11.102;2023-08-06T10:01:18;0.50;;;0.40;;
31382;SDS011;18014;49.228;11.102;2023-08-06T10:03:19;0.73;;;0.68;;
31382;SDS011;18014;49.228;11.102;2023-08-06T10:05:22;0.88;;;0.50;;
31382;SDS011;18014;49.228;11.102;2023-08-06T10:07:23;0.47;;;0.47;;
31382;SDS011;18014;49.228;11.102;2023-08-06T10:09:24;0.45;;;0.45;;
31382;SDS011;18014;49.228;11.102;2023-08-06T10:11:25;1.02;;;0.60;;
31382;SDS011;18014;49.228;11.102;2023-08-06T10:13:27;1.45;;;0.57;;
31382;SDS011;18014;49.228;11.102;2023-08-06T10:15:30;0.40;;;0.40;;
31382;SDS011;18014;49.228;11.102;2023-08-06T10:17:32;0.60;;;0.60;;
31382;SDS011;18014;49.228;11.102;2023-08-06T10:19:34;0.50;;;0.50;;
31382;SDS011;18014;49.228;11.102;2023-08-06T10:21:37;0.25;;;0.25;;
31382;SDS011;18014;49.228;11.102;2023-08-06T10:23:40;0.50;;;0.45;;
31382;SDS011;18014;49.228;11.102;2023-08-06T10:25:41;0.63;;;0.30;;
31382;SDS011;18014;49.228;11.102;2023-08-06T10:29:49;0.40;;;0.40;;
31382;SDS011;18014;49.228;11.102;2023-08-06T10:31:54;0.90;;;0.80;;
31382;SDS011;18014;49.228;11.102;2023-08-06T10:33:58;1.45;;;0.40;;
31382;SDS011;18014;49.228;11.102;2023-08-06T10:36:00;0.10;;;0.10;;
31382;SDS011;18014;49.228;11.102;2023-08-06T10:38:05;0.43;;;0.25;;
31382;SDS011;18014;49.228;11.102;2023-08-06T10:40:09;0.25;;;0.20;;
31382;SDS011;18014;49.228;11.102;2023-08-06T10:42:19;0.20;;;0.20;;
31382;SDS011;18014;49.228;11.102;2023-08-06T10:44:21;0.22;;;0.22;;
31382;SDS011;18014;49.228;11.102;2023-08-06T10:46:23;0.88;;;0.38;;
31382;SDS011;18014;49.228;11.102;2023-08-06T10:48:34;0.30;;;0.30;;
31382;SDS011;18014;49.228;11.102;2023-08-06T10:50:38;0.28;;;0.15;;
31382;SDS011;18014;49.228;11.102;2023-08-06T10:52:40;0.20;;;0.20;;
31382;SDS011;18014;49.228;11.102;2023-08-06T10:54:41;0.10;;;0.10;;
31382;SDS011;18014;49.228;11.102;2023-08-06T10:56:42;0.45;;;0.22;;
31382;SDS011;18014;49.228;11.102;2023-08-06T10:58:45;0.20;;;0.20;;
31382;SDS011;18014;49.228;11.102;2023-08-06T11:00:46;0.10;;;0.10;;
31382;SDS011;18014;49.228;11.102;2023-08-06T11:02:47;0.50;;;0.22;;
31382;SDS011;18014;49.228;11.102;2023-08-06T11:04:49;0.13;;;0.13;;
31382;SDS011;18014;49.228;11.102;2023-08-06T11:06:53;0.20;;;0.20;;
31382;SDS011;18014;49.228;11.102;2023-08-06T11:08:54;1.08;;;0.15;;
31382;SDS011;18014;49.228;11.102;2023-08-06T11:10:56;2.00;;;0.20;;
31382;SDS011;18014;49.228;11.102;2023-08-06T11:13:16;0.10;;;0.10;;
31382;SDS011;18014;49.228;11.102;2023-08-06T11:15:19;1.10;;;0.35;;
31382;SDS011;18014;49.228;11.102;2023-08-06T11:17:21;0.10;;;0.10;;
31382;SDS011;18014;49.228;11.102;2023-08-06T11:19:22;0.10;;;0.10;;
31382;SDS011;18014;49.228;11.102;2023-08-06T11:21:24;1.17;;;0.22;;
31382;SDS011;18014;49.228;11.102;2023-08-06T11:23:28;0.10;;;0.10;;
31382;SDS011;18014;49.228;11.102;2023-08-06T11:25:30;0.10;;;0.10;;
31382;SDS011;18014;49.228;11.102;2023-08-06T11:27:31;0.03;;;0.03;;
31382;SDS011;18014;49.228;11.102;2023-08-06T11:29:36;0.63;;;0.10;;
31382;SDS011;18014;49.228;11.102;2023-08-06T11:31:38;0.05;;;0.05;;
31382;SDS011;18014;49.228;11.102;2023-08-06T11:33:40;0.10;;;0.10;;
31382;SDS011;18014;49.228;11.102;2023-08-06T11:35:41;0.17;;;0.17;;
31382;SDS011;18014;49.228;11.102;2023-08-06T11:37:45;0.20;;;0.20;;
31382;SDS011;18014;49.228;11.102;2023-08-06T11:39:47;0.20;;;0.20;;
31382;SDS011;18014;49.228;11.102;2023-08-06T11:41:49;0.20;;;0.10;;
31382;SDS011;18014;49.228;11.102;2023-08-06T11:43:50;0.85;;;0.13;;
31382;SDS011;18014;49.228;11.102;2023-08-06T11:45:52;0.10;;;0.10;;
31382;SDS011;18014;49.228;11.102;2023-08-06T11:47:55;0.00;;;0.00;;
31382;SDS011;18014;49.228;11.102;2023-08-06T11:49:56;0.85;;;0.20;;
31382;SDS011;18014;49.228;11.102;2023-08-06T11:51:57;0.10;;;0.10;;
31382;SDS011;18014;49.228;11.102;2023-08-06T11:53:58;0.10;;;0.10;;
31382;SDS011;18014;49.228;11.102;2023-08-06T11:55:59;0.00;;;0.00;;
31382;SDS011;18014;49.228;11.102;2023-08-06T11:58:03;0.10;;;0.10;;
31382;SDS011;18014;49.228;11.102;2023-08-06T12:00:09;0.10;;;0.10;;
31382;SDS011;18014;49.228;11.102;2023-08-06T12:02:11;0.00;;;0.00;;
31382;SDS011;18014;49.228;11.102;2023-08-06T12:04:12;0.65;;;0.45;;
31382;SDS011;18014;49.228;11.102;2023-08-06T12:06:13;0.10;;;0.10;;
31382;SDS011;18014;49.228;11.102;2023-08-06T12:08:14;0.10;;;0.10;;
31382;SDS011;18014;49.228;11.102;2023-08-06T12:10:15;0.10;;;0.10;;
31382;SDS011;18014;49.228;11.102;2023-08-06T12:12:17;0.30;;;0.30;;
31382;SDS011;18014;49.228;11.102;2023-08-06T12:14:18;0.20;;;0.15;;
31382;SDS011;18014;49.228;11.102;2023-08-06T12:16:19;0.20;;;0.10;;
31382;SDS011;18014;49.228;11.102;2023-08-06T12:18:21;1.55;;;0.20;;
31382;SDS011;18014;49.228;11.102;2023-08-06T12:20:22;0.43;;;0.20;;